createdAt,value
2019-04-23T00:00:56.211Z,979.88
2019-04-23T00:01:50.946Z,979.83
2019-04-23T00:02:48.858Z,979.78
2019-04-23T00:03:51.682Z,979.80
2019-04-23T00:05:48.143Z,979.68
2019-04-23T00:07:03.520Z,979.66
2019-04-23T00:10:01.320Z,979.65
2019-04-23T00:10:51.528Z,979.64
2019-04-23T00:11:54.387Z,979.66
2019-04-23T00:12:47.785Z,979.60
2019-04-23T00:13:49.971Z,979.64
2019-04-23T00:14:55.000Z,979.66
2019-04-23T00:16:00.363Z,979.61
2019-04-23T00:16:54.521Z,979.62
2019-04-23T00:17:48.949Z,979.65
2019-04-23T00:18:46.448Z,979.61
2019-04-23T00:19:55.675Z,979.62
2019-04-23T00:20:48.017Z,979.58
2019-04-23T00:22:51.693Z,979.53
2019-04-23T00:23:53.385Z,979.59
2019-04-23T00:25:53.701Z,979.59
2019-04-23T00:26:52.230Z,979.51
2019-04-23T00:27:50.409Z,979.58
2019-04-23T00:29:56.229Z,979.51
2019-04-23T00:30:58.222Z,979.51
2019-04-23T00:31:49.890Z,979.49
2019-04-23T00:32:46.164Z,979.45
2019-04-23T00:33:52.725Z,979.48
2019-04-23T00:34:54.635Z,979.41
2019-04-23T00:35:49.830Z,979.46
2019-04-23T00:36:51.712Z,979.43
2019-04-23T00:37:47.694Z,979.43
2019-04-23T00:39:01.340Z,979.43
2019-04-23T00:40:55.694Z,979.42
2019-04-23T00:41:55.316Z,979.48
2019-04-23T00:42:47.902Z,979.42
2019-04-23T00:43:54.943Z,979.45
2019-04-23T00:44:51.765Z,979.44
2019-04-23T00:45:49.853Z,979.41
2019-04-23T00:46:48.973Z,979.39
2019-04-23T00:47:52.604Z,979.42
2019-04-23T00:49:03.611Z,979.35
2019-04-23T00:50:58.483Z,979.35
2019-04-23T00:51:50.086Z,979.30
2019-04-23T00:52:50.668Z,979.32
2019-04-23T00:54:06.054Z,979.30
2019-04-23T00:54:57.518Z,979.29
2019-04-23T00:56:03.650Z,979.28
2019-04-23T00:56:53.770Z,979.27
2019-04-23T00:57:48.723Z,979.27
2019-04-23T00:58:51.010Z,979.25
2019-04-23T00:59:53.649Z,979.30
2019-04-23T01:01:18.329Z,979.30
2019-04-23T01:01:56.752Z,979.26
2019-04-23T01:02:53.371Z,979.24
2019-04-23T01:03:51.873Z,979.24
2019-04-23T01:04:59.666Z,979.25
2019-04-23T01:05:47.458Z,979.23
2019-04-23T01:06:52.344Z,979.22
2019-04-23T01:07:56.347Z,979.18
2019-04-23T01:08:52.377Z,979.15
2019-04-23T01:09:52.736Z,979.13
2019-04-23T01:10:54.020Z,979.10
2019-04-23T01:11:53.504Z,979.16
2019-04-23T01:12:55.430Z,979.16
2019-04-23T01:13:48.963Z,979.13
2019-04-23T01:14:53.357Z,979.15
2019-04-23T01:15:53.630Z,979.15
2019-04-23T01:16:42.580Z,979.10
2019-04-23T01:17:53.113Z,979.14
2019-04-23T01:18:51.481Z,979.14
2019-04-23T01:19:49.506Z,979.08
2019-04-23T01:20:51.976Z,979.08
2019-04-23T01:21:28.441Z,979.05
2019-04-23T01:22:29.285Z,979.06
2019-04-23T01:23:37.759Z,979.04
2019-04-23T01:24:31.482Z,979.05
2019-04-23T01:25:36.427Z,979.02
2019-04-23T01:26:57.621Z,979.01
2019-04-23T01:28:55.752Z,978.99
2019-04-23T01:29:58.540Z,978.98
2019-04-23T01:30:55.341Z,978.95
2019-04-23T01:31:53.546Z,978.94
2019-04-23T01:33:09.242Z,978.91
2019-04-23T01:33:51.783Z,978.90
2019-04-23T01:34:56.225Z,978.88
2019-04-23T01:36:06.166Z,978.90
2019-04-23T01:36:54.605Z,978.93
2019-04-23T01:37:52.340Z,978.95
2019-04-23T01:38:55.695Z,978.95
2019-04-23T01:40:50.373Z,978.94
2019-04-23T01:41:58.017Z,978.98
2019-04-23T01:42:49.204Z,978.94
2019-04-23T01:43:53.544Z,978.95
2019-04-23T01:45:05.000Z,978.96
2019-04-23T01:45:51.105Z,978.92
2019-04-23T01:46:56.125Z,978.89
2019-04-23T01:47:55.830Z,978.94
2019-04-23T01:48:52.223Z,978.88
2019-04-23T01:50:54.595Z,978.88
2019-04-23T01:51:54.912Z,978.84
2019-04-23T01:53:51.546Z,978.85
2019-04-23T01:54:52.796Z,978.80
2019-04-23T01:55:52.755Z,978.83
2019-04-23T01:56:49.447Z,978.78
2019-04-23T01:59:58.418Z,978.78
2019-04-23T02:00:53.234Z,978.78
2019-04-23T02:02:55.480Z,978.70
2019-04-23T02:03:58.250Z,978.73
2019-04-23T02:05:07.597Z,978.68
2019-04-23T02:05:55.826Z,978.68
2019-04-23T02:06:50.512Z,978.69
2019-04-23T02:07:56.976Z,978.67
2019-04-23T02:08:53.592Z,978.64
2019-04-23T02:09:55.329Z,978.67
2019-04-23T02:10:58.694Z,978.60
2019-04-23T02:11:52.544Z,978.59
2019-04-23T02:12:57.043Z,978.59
2019-04-23T02:14:08.291Z,978.55
2019-04-23T02:14:59.404Z,978.53
2019-04-23T02:15:55.480Z,978.56
2019-04-23T02:16:50.387Z,978.48
2019-04-23T02:17:58.005Z,978.53
2019-04-23T02:19:11.374Z,978.49
2019-04-23T02:20:02.333Z,978.52
2019-04-23T02:20:57.644Z,978.48
2019-04-23T02:22:01.174Z,978.42
2019-04-23T02:23:58.370Z,978.42
2019-04-23T02:24:55.850Z,978.42
2019-04-23T02:26:50.947Z,978.37
2019-04-23T02:27:59.872Z,978.38
2019-04-23T02:29:03.559Z,978.38
2019-04-23T02:30:10.654Z,978.34
2019-04-23T02:31:12.596Z,978.34
2019-04-23T02:33:15.044Z,978.34
2019-04-23T02:40:06.236Z,978.18
2019-04-23T02:41:04.783Z,978.19
2019-04-23T02:42:07.768Z,978.19
2019-04-23T02:44:04.857Z,978.15
2019-04-23T02:44:57.505Z,978.21
2019-04-23T02:46:02.407Z,978.16
2019-04-23T02:48:10.770Z,978.14
2019-04-23T02:50:11.167Z,978.16
2019-04-23T02:51:59.243Z,978.14
2019-04-23T02:53:05.207Z,978.15
2019-04-23T02:54:08.528Z,978.15
2019-04-23T02:55:03.785Z,978.18
2019-04-23T02:56:05.396Z,978.15
2019-04-23T02:58:06.101Z,978.10
2019-04-23T02:59:02.201Z,978.07
2019-04-23T03:02:05.801Z,978.12
2019-04-23T03:03:14.063Z,978.11
2019-04-23T03:04:00.896Z,978.12
2019-04-23T03:04:58.081Z,978.10
2019-04-23T03:07:11.701Z,978.09
2019-04-23T03:08:00.627Z,978.10
2019-04-23T03:08:54.870Z,978.07
2019-04-23T03:10:03.271Z,978.01
2019-04-23T03:11:56.790Z,978.05
2019-04-23T03:13:19.435Z,978.06
2019-04-23T03:14:00.317Z,978.00
2019-04-23T03:15:14.458Z,978.06
2019-04-23T03:16:08.481Z,978.06
2019-04-23T03:16:58.428Z,978.02
2019-04-23T03:18:11.767Z,978.09
2019-04-23T03:20:10.633Z,978.07
2019-04-23T03:21:15.614Z,978.07
2019-04-23T03:21:59.396Z,978.06
2019-04-23T03:23:03.353Z,978.08
2019-04-23T03:24:03.416Z,978.04
2019-04-23T03:26:00.182Z,978.03
2019-04-23T03:27:10.337Z,978.02
2019-04-23T03:28:04.101Z,978.04
2019-04-23T03:29:04.006Z,977.99
2019-04-23T03:30:49.201Z,977.98
2019-04-23T03:32:30.750Z,978.00
2019-04-23T03:38:05.872Z,977.95
2019-04-23T03:40:07.712Z,977.90
2019-04-23T03:41:08.935Z,977.90
2019-04-23T03:42:02.946Z,977.87
2019-04-23T03:43:46.448Z,977.90
2019-04-23T03:46:11.830Z,977.86
2019-04-23T03:47:16.239Z,977.84
2019-04-23T03:48:02.180Z,977.83
2019-04-23T03:48:51.188Z,977.92
2019-04-23T03:50:15.489Z,977.86
2019-04-23T03:50:52.888Z,977.85
2019-04-23T03:52:07.383Z,977.84
2019-04-23T03:52:54.799Z,977.87
2019-04-23T03:54:21.884Z,977.87
2019-04-23T03:54:48.708Z,977.87
2019-04-23T03:56:03.833Z,977.89
2019-04-23T03:57:54.133Z,977.84
2019-04-23T03:58:58.234Z,977.84
2019-04-23T04:00:58.979Z,977.84
2019-04-23T04:03:27.879Z,977.86
2019-04-23T04:04:20.267Z,977.85
2019-04-23T04:04:49.870Z,977.79
2019-04-23T04:08:10.298Z,977.78
2019-04-23T04:09:13.242Z,977.79
2019-04-23T04:09:51.782Z,977.77
2019-04-23T04:11:09.607Z,977.80
2019-04-23T04:11:57.276Z,977.77
2019-04-23T04:12:59.182Z,977.73
2019-04-23T04:14:30.109Z,977.73
2019-04-23T04:15:10.517Z,977.75
2019-04-23T04:16:00.758Z,977.77
2019-04-23T04:18:11.017Z,977.76
2019-04-23T04:19:56.280Z,977.79
2019-04-23T04:21:01.146Z,977.77
2019-04-23T04:22:00.739Z,977.75
2019-04-23T04:23:15.399Z,977.74
2019-04-23T04:24:05.063Z,977.74
2019-04-23T04:25:01.670Z,977.77
2019-04-23T04:26:16.304Z,977.76
2019-04-23T04:28:01.334Z,977.75
2019-04-23T04:29:00.611Z,977.73
2019-04-23T04:30:01.021Z,977.73
2019-04-23T04:30:52.175Z,977.69
2019-04-23T04:33:09.403Z,977.70
2019-04-23T04:36:08.275Z,977.74
2019-04-23T04:37:26.710Z,977.70
2019-04-23T04:38:04.267Z,977.68
2019-04-23T04:38:57.104Z,977.72
2019-04-23T04:41:56.873Z,977.67
2019-04-23T04:43:09.201Z,977.62
2019-04-23T04:44:17.039Z,977.65
2019-04-23T04:45:00.046Z,977.66
2019-04-23T04:47:14.838Z,977.61
2019-04-23T04:48:55.798Z,977.61
2019-04-23T04:51:04.205Z,977.60
2019-04-23T04:52:13.493Z,977.59
2019-04-23T04:54:55.963Z,977.52
2019-04-23T04:56:10.167Z,977.56
2019-04-23T04:59:07.687Z,977.51
2019-04-23T05:03:45.102Z,977.55
2019-04-23T05:05:05.306Z,977.51
2019-04-23T05:11:05.386Z,977.42
2019-04-23T05:12:03.609Z,977.43
2019-04-23T05:12:59.478Z,977.42
2019-04-23T05:14:00.177Z,977.41
2019-04-23T05:14:59.134Z,977.41
2019-04-23T05:15:53.914Z,977.38
2019-04-23T05:18:03.250Z,977.33
2019-04-23T05:18:52.086Z,977.36
2019-04-23T05:20:14.666Z,977.40
2019-04-23T05:21:01.923Z,977.35
2019-04-23T05:22:01.003Z,977.37
2019-04-23T05:23:09.187Z,977.34
2019-04-23T05:24:48.600Z,977.31
2019-04-23T05:25:51.249Z,977.33
2019-04-23T05:26:51.505Z,977.27
2019-04-23T05:29:01.760Z,977.32
2019-04-23T05:29:55.937Z,977.29
2019-04-23T05:30:52.153Z,977.26
2019-04-23T05:31:46.565Z,977.28
2019-04-23T05:32:45.177Z,977.29
2019-04-23T05:33:57.218Z,977.24
2019-04-23T05:34:50.321Z,977.28
2019-04-23T05:39:54.623Z,977.21
2019-04-23T05:40:53.634Z,977.18
2019-04-23T05:41:52.557Z,977.20
2019-04-23T05:42:56.419Z,977.17
2019-04-23T05:43:54.713Z,977.16
2019-04-23T05:44:57.133Z,977.19
2019-04-23T05:45:46.514Z,977.16
2019-04-23T05:46:52.175Z,977.16
2019-04-23T05:48:52.290Z,977.14
2019-04-23T05:49:55.044Z,977.17
2019-04-23T05:50:57.833Z,977.13
2019-04-23T05:52:57.759Z,977.17
2019-04-23T05:55:55.277Z,977.13
2019-04-23T05:57:01.783Z,977.15
2019-04-23T05:57:53.649Z,977.12
2019-04-23T05:58:54.543Z,977.14
2019-04-23T05:59:48.515Z,977.15
2019-04-23T06:00:54.474Z,977.11
2019-04-23T06:03:02.612Z,977.15
2019-04-23T06:03:58.247Z,977.12
2019-04-23T06:04:49.633Z,977.19
2019-04-23T06:05:54.270Z,977.14
2019-04-23T06:07:10.838Z,977.14
2019-04-23T06:07:51.258Z,977.20
2019-04-23T06:08:53.326Z,977.13
2019-04-23T06:09:56.333Z,977.13
2019-04-23T06:12:55.812Z,977.20
2019-04-23T06:13:52.507Z,977.19
2019-04-23T06:14:55.833Z,977.17
2019-04-23T06:16:12.292Z,977.18
2019-04-23T06:16:49.281Z,977.16
2019-04-23T06:17:47.442Z,977.14
2019-04-23T06:18:57.602Z,977.18
2019-04-23T06:19:49.811Z,977.23
2019-04-23T06:21:57.490Z,977.18
2019-04-23T06:22:51.204Z,977.18
2019-04-23T06:23:55.730Z,977.15
2019-04-23T06:24:49.198Z,977.12
2019-04-23T06:27:54.943Z,977.10
2019-04-23T06:28:58.162Z,977.08
2019-04-23T06:29:50.086Z,977.07
2019-04-23T06:30:56.008Z,977.05
2019-04-23T06:31:50.693Z,977.08
2019-04-23T06:32:46.456Z,977.12
2019-04-23T06:33:52.364Z,977.12
2019-04-23T06:34:48.397Z,977.10
2019-04-23T06:35:53.141Z,977.06
2019-04-23T06:38:16.267Z,977.09
2019-04-23T06:38:53.396Z,977.04
2019-04-23T06:39:49.846Z,977.07
2019-04-23T06:40:50.317Z,977.08
2019-04-23T06:41:50.047Z,977.05
2019-04-23T06:42:45.772Z,977.05
2019-04-23T06:43:56.422Z,977.07
2019-04-23T06:45:01.178Z,977.07
2019-04-23T06:45:45.902Z,977.10
2019-04-23T06:46:56.761Z,977.10
2019-04-23T06:47:46.432Z,977.05
2019-04-23T06:48:47.752Z,977.03
2019-04-23T06:49:54.468Z,977.01
2019-04-23T06:52:45.528Z,977.00
2019-04-23T06:53:43.733Z,976.98
2019-04-23T06:54:56.007Z,976.98
2019-04-23T06:55:49.447Z,976.95
2019-04-23T06:57:00.591Z,976.94
2019-04-23T06:57:49.730Z,976.94
2019-04-23T06:58:47.284Z,976.97
2019-04-23T06:59:52.679Z,977.00
2019-04-23T07:00:51.265Z,976.93
2019-04-23T07:01:53.246Z,976.96
2019-04-23T07:03:08.843Z,976.94
2019-04-23T07:03:55.738Z,976.92
2019-04-23T07:04:56.918Z,976.96
2019-04-23T07:05:55.461Z,976.99
2019-04-23T07:06:58.350Z,976.94
2019-04-23T07:08:02.887Z,976.93
2019-04-23T07:09:05.187Z,976.98
2019-04-23T07:09:43.906Z,976.91
2019-04-23T07:10:54.295Z,976.91
2019-04-23T07:11:42.826Z,976.92
2019-04-23T07:12:50.673Z,976.93
2019-04-23T07:14:51.763Z,976.90
2019-04-23T07:16:46.496Z,976.80
2019-04-23T07:17:51.859Z,976.75
2019-04-23T07:18:50.314Z,976.79
2019-04-23T07:19:48.345Z,976.76
2019-04-23T07:20:50.048Z,976.72
2019-04-23T07:21:54.493Z,976.74
2019-04-23T07:22:49.973Z,976.74
2019-04-23T07:23:59.176Z,976.71
2019-04-23T07:24:49.513Z,976.69
2019-04-23T07:25:55.919Z,976.77
2019-04-23T07:27:49.373Z,976.74
2019-04-23T07:29:56.788Z,976.73
2019-04-23T07:30:51.566Z,976.69
2019-04-23T07:32:49.731Z,976.63
2019-04-23T07:34:57.395Z,976.66
2019-04-23T07:35:51.895Z,976.65
2019-04-23T07:36:47.333Z,976.65
2019-04-23T07:37:54.534Z,976.65
2019-04-23T07:38:54.728Z,976.57
2019-04-23T07:39:58.993Z,976.64
2019-04-23T07:40:50.080Z,976.56
2019-04-23T07:41:56.034Z,976.61
2019-04-23T07:42:55.161Z,976.56
2019-04-23T07:43:54.550Z,976.53
2019-04-23T07:44:48.452Z,976.49
2019-04-23T07:45:57.580Z,976.52
2019-04-23T07:47:59.460Z,976.46
2019-04-23T07:48:48.024Z,976.54
2019-04-23T07:50:07.990Z,976.49
2019-04-23T07:50:49.163Z,976.44
2019-04-23T07:51:59.049Z,976.49
2019-04-23T07:53:01.915Z,976.48
2019-04-23T07:54:06.273Z,976.57
2019-04-23T07:54:58.784Z,976.52
2019-04-23T07:56:07.606Z,976.52
2019-04-23T07:56:53.830Z,976.58
2019-04-23T07:57:51.927Z,976.54
2019-04-23T07:58:44.672Z,976.54
2019-04-23T08:01:51.137Z,976.54
2019-04-23T08:02:50.129Z,976.48
2019-04-23T08:03:48.219Z,976.66
2019-04-23T08:05:13.767Z,976.61
2019-04-23T08:05:44.090Z,976.64
2019-04-23T08:06:57.795Z,976.63
2019-04-23T08:07:49.743Z,976.57
2019-04-23T08:08:52.668Z,976.66
2019-04-23T08:09:56.574Z,976.61
2019-04-23T08:11:10.995Z,976.61
2019-04-23T08:11:49.273Z,976.60
2019-04-23T08:12:48.089Z,976.63
2019-04-23T08:13:55.677Z,976.66
2019-04-23T08:14:53.473Z,976.62
2019-04-23T08:15:48.072Z,976.70
2019-04-23T08:16:49.939Z,976.70
2019-04-23T08:17:43.450Z,976.64
2019-04-23T08:19:25.487Z,976.65
2019-04-23T08:19:56.338Z,976.69
2019-04-23T08:20:50.867Z,976.59
2019-04-23T08:21:48.023Z,976.64
2019-04-23T08:22:45.791Z,976.66
2019-04-23T08:23:50.673Z,976.63
2019-04-23T08:25:56.402Z,976.73
2019-04-23T08:27:48.540Z,976.64
2019-04-23T08:28:58.481Z,976.59
2019-04-23T08:29:47.699Z,976.61
2019-04-23T08:30:49.989Z,976.61
2019-04-23T08:31:50.370Z,976.56
2019-04-23T08:32:52.168Z,976.58
2019-04-23T08:33:59.702Z,976.56
2019-04-23T08:34:51.714Z,976.58
2019-04-23T08:35:51.378Z,976.59
2019-04-23T08:36:50.170Z,976.59
2019-04-23T08:38:54.833Z,976.60
2019-04-23T08:40:59.147Z,976.65
2019-04-23T08:43:09.393Z,976.56
2019-04-23T08:44:11.283Z,976.58
2019-04-23T08:45:01.279Z,976.52
2019-04-23T08:45:46.247Z,976.48
2019-04-23T08:46:56.751Z,976.47
2019-04-23T08:47:54.638Z,976.49
2019-04-23T08:48:55.999Z,976.45
2019-04-23T08:49:47.683Z,976.44
2019-04-23T08:50:44.115Z,976.40
2019-04-23T08:51:54.774Z,976.45
2019-04-23T08:53:00.155Z,976.42
2019-04-23T08:54:04.379Z,976.46
2019-04-23T08:55:02.206Z,976.42
2019-04-23T08:55:50.159Z,976.41
2019-04-23T08:57:43.121Z,976.49
2019-04-23T08:59:06.964Z,976.37
2019-04-23T09:00:53.811Z,976.38
2019-04-23T09:01:57.954Z,976.30
2019-04-23T09:02:51.542Z,976.35
2019-04-23T09:04:00.373Z,976.33
2019-04-23T09:04:53.877Z,976.22
2019-04-23T09:05:54.363Z,976.22
2019-04-23T09:07:00.779Z,976.27
2019-04-23T09:07:58.521Z,976.25
2019-04-23T09:08:44.241Z,976.20
2019-04-23T09:09:50.801Z,976.23
2019-04-23T09:10:51.780Z,976.22
2019-04-23T09:11:58.003Z,976.25
2019-04-23T09:13:01.112Z,976.22
2019-04-23T09:14:51.053Z,976.24
2019-04-23T09:15:49.790Z,976.24
2019-04-23T09:16:52.538Z,976.24
2019-04-23T09:17:57.664Z,976.24
2019-04-23T09:18:51.225Z,976.23
2019-04-23T09:20:09.879Z,976.25
2019-04-23T09:20:42.985Z,976.17
2019-04-23T09:21:51.248Z,976.27
2019-04-23T09:22:45.221Z,976.23
2019-04-23T09:24:47.071Z,976.21
2019-04-23T09:25:49.930Z,976.15
2019-04-23T09:26:56.351Z,976.14
2019-04-23T09:27:44.807Z,976.11
2019-04-23T09:29:52.209Z,976.12
2019-04-23T09:30:49.585Z,976.07
2019-04-23T09:32:43.484Z,976.05
2019-04-23T09:35:02.501Z,976.09
2019-04-23T09:35:46.100Z,976.06
2019-04-23T09:36:51.687Z,976.08
2019-04-23T09:37:54.117Z,976.07
2019-04-23T09:39:54.773Z,976.06
2019-04-23T09:41:46.149Z,976.10
2019-04-23T09:43:48.557Z,975.98
2019-04-23T09:45:00.076Z,976.06
2019-04-23T09:45:48.816Z,976.00
2019-04-23T09:46:57.307Z,976.02
2019-04-23T09:47:53.715Z,976.09
2019-04-23T09:48:53.597Z,976.02
2019-04-23T09:49:50.806Z,976.02
2019-04-23T09:50:49.459Z,975.99
2019-04-23T09:51:56.296Z,975.93
2019-04-23T09:53:01.377Z,975.97
2019-04-23T09:53:59.440Z,976.03
2019-04-23T09:54:57.725Z,975.95
2019-04-23T09:55:46.594Z,975.97
2019-04-23T09:56:47.781Z,975.95
2019-04-23T09:57:50.041Z,975.92
2019-04-23T09:58:49.654Z,975.90
2019-04-23T09:59:48.950Z,975.91
2019-04-23T10:01:34.522Z,975.94
2019-04-23T10:02:33.928Z,975.96
2019-04-23T10:03:38.196Z,975.93
2019-04-23T10:04:36.881Z,975.91
2019-04-23T10:05:30.879Z,975.80
2019-04-23T10:06:24.940Z,975.96
2019-04-23T10:07:34.929Z,975.93
2019-04-23T10:08:27.929Z,975.91
2019-04-23T10:09:22.268Z,975.84
2019-04-23T10:10:20.802Z,975.89
2019-04-23T10:11:22.044Z,975.87
2019-04-23T10:12:22.026Z,975.89
2019-04-23T10:13:21.915Z,975.89
2019-04-23T10:14:20.794Z,975.90
2019-04-23T10:15:24.987Z,975.91
2019-04-23T10:16:23.314Z,975.97
2019-04-23T10:17:20.761Z,975.90
2019-04-23T10:18:20.383Z,975.96
2019-04-23T10:19:20.376Z,975.98
2019-04-23T10:20:20.649Z,975.91
2019-04-23T10:21:21.479Z,975.91
2019-04-23T10:22:20.343Z,975.93
2019-04-23T10:23:21.291Z,975.94
2019-04-23T10:24:21.055Z,975.91
2019-04-23T10:25:21.055Z,975.90
2019-04-23T10:26:21.740Z,975.92
2019-04-23T10:27:21.115Z,975.90
2019-04-23T10:28:22.125Z,975.92
2019-04-23T10:29:20.282Z,975.99
2019-04-23T10:30:21.721Z,975.89
2019-04-23T10:31:20.901Z,975.92
2019-04-23T10:32:21.745Z,975.91
2019-04-23T10:33:21.310Z,975.91
2019-04-23T10:34:21.136Z,975.95
2019-04-23T10:35:30.342Z,975.96
2019-04-23T10:36:23.924Z,975.93
2019-04-23T10:37:31.867Z,975.93
2019-04-23T10:38:22.070Z,975.95
2019-04-23T10:39:25.809Z,975.92
2019-04-23T10:40:26.196Z,975.90
2019-04-23T10:41:20.269Z,975.92
2019-04-23T10:42:21.849Z,975.89
2019-04-23T10:43:20.663Z,975.88
2019-04-23T10:44:21.482Z,975.88
2019-04-23T10:45:34.929Z,975.91
2019-04-23T10:46:38.059Z,975.97
2019-04-23T10:47:47.764Z,976.05
2019-04-23T10:49:53.360Z,975.99
2019-04-23T10:51:00.365Z,975.98
2019-04-23T10:53:02.664Z,975.96
2019-04-23T10:53:46.815Z,975.98
2019-04-23T10:54:52.324Z,976.01
2019-04-23T10:56:07.434Z,976.00
2019-04-23T10:56:53.180Z,975.94
2019-04-23T10:57:45.084Z,975.95
2019-04-23T10:58:45.823Z,975.93
2019-04-23T10:59:45.030Z,975.95
2019-04-23T11:01:53.101Z,975.96
2019-04-23T11:03:12.291Z,975.94
2019-04-23T11:04:02.460Z,975.94
2019-04-23T11:06:08.784Z,975.94
2019-04-23T11:07:33.993Z,975.95
2019-04-23T11:08:44.033Z,975.90
2019-04-23T11:10:48.499Z,975.89
2019-04-23T11:11:56.604Z,975.89
2019-04-23T11:14:49.943Z,975.94
2019-04-23T11:16:21.850Z,975.89
2019-04-23T11:21:07.486Z,975.96
2019-04-23T11:21:52.415Z,975.93
2019-04-23T11:23:51.793Z,975.92
2019-04-23T11:24:48.823Z,975.88
2019-04-23T11:25:42.585Z,975.91
2019-04-23T11:26:49.893Z,975.87
2019-04-23T11:27:52.193Z,975.79
2019-04-23T11:28:44.932Z,975.81
2019-04-23T11:29:51.873Z,975.86
2019-04-23T11:30:41.537Z,975.82
2019-04-23T11:32:21.519Z,975.84
2019-04-23T11:32:53.816Z,975.85
2019-04-23T11:33:55.030Z,975.82
2019-04-23T11:35:03.462Z,975.90
2019-04-23T11:36:01.748Z,975.88
2019-04-23T11:36:54.306Z,975.89
2019-04-23T11:39:00.682Z,975.85
2019-04-23T11:39:53.902Z,975.84
2019-04-23T11:40:42.028Z,975.81
2019-04-23T11:41:51.277Z,975.84
2019-04-23T11:43:01.144Z,975.77
2019-04-23T11:43:46.402Z,975.84
2019-04-23T11:44:49.072Z,975.81
2019-04-23T11:49:04.730Z,975.85
2019-04-23T11:49:53.269Z,975.85
2019-04-23T11:51:24.207Z,975.89
2019-04-23T11:52:04.454Z,975.83
2019-04-23T11:53:52.880Z,975.85
2019-04-23T11:54:50.906Z,975.86
2019-04-23T11:55:59.326Z,975.92
2019-04-23T11:57:14.823Z,975.92
2019-04-23T11:58:00.225Z,975.95
2019-04-23T11:58:49.234Z,975.88
2019-04-23T12:01:03.315Z,975.86
2019-04-23T12:02:49.813Z,975.90
2019-04-23T12:03:56.463Z,975.92
2019-04-23T12:04:57.332Z,975.92
2019-04-23T12:05:52.322Z,975.96
2019-04-23T12:07:50.260Z,975.89
2019-04-23T12:08:57.101Z,975.91
2019-04-23T12:09:53.640Z,975.93
2019-04-23T12:11:10.404Z,975.95
2019-04-23T12:13:03.338Z,975.91
2019-04-23T12:13:54.581Z,975.90
2019-04-23T12:14:48.083Z,975.87
2019-04-23T12:15:49.952Z,975.92
2019-04-23T12:17:05.653Z,975.92
2019-04-23T12:18:10.837Z,975.87
2019-04-23T12:19:17.925Z,975.91
2019-04-23T12:20:49.121Z,975.92
2019-04-23T12:21:53.159Z,975.87
2019-04-23T12:22:58.768Z,975.87
2019-04-23T12:25:52.825Z,975.94
2019-04-23T12:26:53.493Z,975.90
2019-04-23T12:27:58.973Z,975.91
2019-04-23T12:28:50.116Z,975.89
2019-04-23T12:29:50.649Z,975.88
2019-04-23T12:30:57.092Z,975.87
2019-04-23T12:31:47.643Z,975.96
2019-04-23T12:33:50.252Z,975.81
2019-04-23T12:35:40.783Z,975.81
2019-04-23T12:36:46.689Z,975.81
2019-04-23T12:38:00.740Z,975.85
2019-04-23T12:38:52.478Z,975.86
2019-04-23T12:39:57.194Z,975.83
2019-04-23T12:40:45.919Z,975.85
2019-04-23T12:41:55.257Z,975.85
2019-04-23T12:42:54.024Z,975.93
2019-04-23T12:43:47.417Z,975.87
2019-04-23T12:45:00.067Z,975.89
2019-04-23T12:45:43.952Z,975.93
2019-04-23T12:47:05.732Z,975.88
2019-04-23T12:49:13.060Z,975.88
2019-04-23T12:50:05.433Z,975.81
2019-04-23T12:50:48.736Z,975.80
2019-04-23T12:51:53.799Z,975.83
2019-04-23T12:53:01.071Z,975.82
2019-04-23T12:53:39.887Z,975.82
2019-04-23T12:55:02.856Z,975.79
2019-04-23T12:55:46.451Z,975.79
2019-04-23T12:56:57.393Z,975.77
2019-04-23T12:57:46.787Z,975.77
2019-04-23T12:58:41.450Z,975.71
2019-04-23T12:59:50.104Z,975.70
2019-04-23T13:00:45.836Z,975.73
2019-04-23T13:01:48.991Z,975.69
2019-04-23T13:03:45.532Z,975.73
2019-04-23T13:04:48.678Z,975.78
2019-04-23T13:05:38.919Z,975.67
2019-04-23T13:06:44.173Z,975.67
2019-04-23T13:07:52.070Z,975.69
2019-04-23T13:09:02.803Z,975.63
2019-04-23T13:09:52.547Z,975.59
2019-04-23T13:11:52.860Z,975.66
2019-04-23T13:12:50.300Z,975.63
2019-04-23T13:14:49.572Z,975.60
2019-04-23T13:15:48.841Z,975.62
2019-04-23T13:16:53.993Z,975.57
2019-04-23T13:17:49.971Z,975.55
2019-04-23T13:22:03.314Z,975.47
2019-04-23T13:23:45.979Z,975.49
2019-04-23T13:24:48.752Z,975.46
2019-04-23T13:25:48.081Z,975.55
2019-04-23T13:26:46.527Z,975.51
2019-04-23T13:27:54.343Z,975.51
2019-04-23T13:28:48.425Z,975.48
2019-04-23T13:29:51.796Z,975.47
2019-04-23T13:31:39.745Z,975.43
2019-04-23T13:32:52.206Z,975.38
2019-04-23T13:33:58.461Z,975.39
2019-04-23T13:35:53.274Z,975.32
2019-04-23T13:36:53.809Z,975.29
2019-04-23T13:37:57.196Z,975.28
2019-04-23T13:39:43.915Z,975.29
2019-04-23T13:41:45.810Z,975.30
2019-04-23T13:42:52.408Z,975.27
2019-04-23T13:43:45.407Z,975.21
2019-04-23T13:44:52.138Z,975.25
2019-04-23T13:46:49.836Z,975.24
2019-04-23T13:47:58.531Z,975.19
2019-04-23T13:48:42.354Z,975.22
2019-04-23T13:49:54.106Z,975.20
2019-04-23T13:51:50.817Z,975.15
2019-04-23T13:54:06.018Z,975.15
2019-04-23T13:55:50.430Z,975.17
2019-04-23T13:58:53.558Z,975.22
2019-04-23T13:59:48.421Z,975.22
2019-04-23T14:00:58.170Z,975.20
2019-04-23T14:01:46.593Z,975.20
2019-04-23T14:03:46.144Z,975.21
2019-04-23T14:04:50.676Z,975.21
2019-04-23T14:05:56.820Z,975.23
2019-04-23T14:06:52.741Z,975.20
2019-04-23T14:09:54.162Z,975.22
2019-04-23T14:10:48.189Z,975.19
2019-04-23T14:11:39.577Z,975.19
2019-04-23T14:13:06.522Z,975.19
2019-04-23T14:15:04.434Z,975.16
2019-04-23T14:15:53.973Z,975.14
2019-04-23T14:17:08.518Z,975.18
2019-04-23T14:18:56.083Z,975.10
2019-04-23T14:19:45.670Z,975.13
2019-04-23T14:20:46.879Z,975.08
2019-04-23T14:21:46.959Z,975.08
2019-04-23T14:24:04.553Z,975.10
2019-04-23T14:25:59.887Z,975.04
2019-04-23T14:27:10.901Z,975.02
2019-04-23T14:27:56.603Z,974.99
2019-04-23T14:28:46.352Z,974.95
2019-04-23T14:29:56.040Z,974.98
2019-04-23T14:30:53.472Z,975.03
2019-04-23T14:31:54.908Z,975.03
2019-04-23T14:32:53.971Z,975.03
2019-04-23T14:34:54.335Z,975.03
2019-04-23T14:35:45.226Z,975.04
2019-04-23T14:36:55.721Z,975.01
2019-04-23T14:38:06.593Z,975.06
2019-04-23T14:38:54.491Z,975.09
2019-04-23T14:39:47.655Z,975.11
2019-04-23T14:40:59.198Z,975.03
2019-04-23T14:42:01.149Z,975.06
2019-04-23T14:43:58.099Z,975.08
2019-04-23T14:44:52.430Z,975.08
2019-04-23T14:46:12.179Z,975.05
2019-04-23T14:46:53.040Z,975.08
2019-04-23T14:49:59.326Z,975.06
2019-04-23T14:51:11.396Z,975.10
2019-04-23T14:53:02.057Z,975.09
2019-04-23T14:53:46.381Z,975.08
2019-04-23T14:55:22.633Z,975.11
2019-04-23T14:55:57.032Z,975.07
2019-04-23T14:56:56.881Z,975.07
2019-04-23T14:58:00.351Z,975.13
2019-04-23T14:59:46.946Z,975.07
2019-04-23T15:00:57.512Z,975.09
2019-04-23T15:01:49.088Z,975.14
2019-04-23T15:02:54.311Z,975.10
2019-04-23T15:03:46.615Z,975.11
2019-04-23T15:04:50.645Z,975.08
2019-04-23T15:06:01.945Z,975.13
2019-04-23T15:06:50.755Z,975.06
2019-04-23T15:08:06.183Z,975.07
2019-04-23T15:09:54.965Z,975.04
2019-04-23T15:11:06.337Z,975.04
2019-04-23T15:11:57.610Z,975.01
2019-04-23T15:14:51.963Z,975.01
2019-04-23T15:15:53.234Z,974.99
2019-04-23T15:17:49.607Z,974.99
2019-04-23T15:19:48.232Z,975.00
2019-04-23T15:20:46.442Z,974.97
2019-04-23T15:21:53.754Z,974.96
2019-04-23T15:23:10.725Z,974.98
2019-04-23T15:24:06.960Z,974.99
2019-04-23T15:24:56.797Z,975.00
2019-04-23T15:26:15.442Z,974.97
2019-04-23T15:28:05.308Z,974.96
2019-04-23T15:28:29.082Z,974.99
2019-04-23T15:29:32.880Z,974.96
2019-04-23T15:30:50.829Z,974.97